Time;durP1;ratioP1;P1;durP2;ratioP2;P2;SDS_P1;SDS_P2;PMS_P1;PMS_P2;Temp;Humidity;BMP_temperature;BMP_pressure;BME280_temperature;BME280_humidity;BME280_pressure;Samples;Min_cycle;Max_cycle;Signal;HPM_P1;HPM_P2
2021/01/19 00:01:20;;;;;;;3.72;2.45;;;8.80;69.10;;;;;;5028759;28;20031;-80
2021/01/19 00:03:45;;;;;;;2.50;2.28;;;8.80;69.10;;;;;;5038852;28;20552;-81
2021/01/19 00:06:12;;;;;;;2.90;2.55;;;8.80;69.10;;;;;;5038932;28;20556;-79
2021/01/19 00:08:38;;;;;;;3.22;2.65;;;8.80;69.20;;;;;;5029001;28;20569;-80
2021/01/19 00:11:05;;;;;;;3.60;2.88;;;8.80;69.10;;;;;;5038161;28;20064;-79
2021/01/19 00:13:31;;;;;;;3.13;2.63;;;8.80;69.10;;;;;;5031628;28;20037;-79
2021/01/19 00:15:56;;;;;;;6.43;3.40;;;8.80;69.10;;;;;;5043382;28;20047;-79
2021/01/19 00:18:22;;;;;;;3.42;3.05;;;8.70;69.10;;;;;;5039065;28;20093;-80
2021/01/19 00:20:48;;;;;;;3.30;2.85;;;8.80;69.10;;;;;;5043341;28;20032;-81
2021/01/19 00:23:13;;;;;;;3.13;2.63;;;8.80;69.00;;;;;;5037472;28;20040;-79
2021/01/19 00:25:42;;;;;;;3.60;2.78;;;8.80;69.00;;;;;;5035243;28;20150;-79
2021/01/19 00:28:09;;;;;;;3.40;3.00;;;8.80;69.00;;;;;;5039172;28;20048;-79
2021/01/19 00:30:39;;;;;;;3.35;2.63;;;8.80;69.00;;;;;;5044827;28;20025;-78
2021/01/19 00:33:06;;;;;;;3.40;3.10;;;8.80;69.00;;;;;;5049560;28;20040;-80
2021/01/19 00:35:31;;;;;;;5.70;3.15;;;8.80;69.00;;;;;;5054582;28;20025;-80
2021/01/19 00:37:59;;;;;;;3.70;2.85;;;8.80;69.00;;;;;;5054551;28;20721;-80
2021/01/19 00:40:28;;;;;;;3.88;2.40;;;8.70;69.00;;;;;;5055275;28;20056;-80
2021/01/19 00:42:54;;;;;;;3.95;2.80;;;8.80;69.00;;;;;;5053783;28;20614;-79
2021/01/19 00:45:19;;;;;;;4.53;3.25;;;8.80;69.10;;;;;;5052666;28;20090;-81
2021/01/19 00:47:45;;;;;;;3.42;3.03;;;8.70;69.00;;;;;;5054666;28;20030;-80
2021/01/19 00:50:11;;;;;;;3.53;3.17;;;8.80;69.10;;;;;;5054841;28;20053;-80
2021/01/19 00:52:37;;;;;;;3.95;3.20;;;8.70;69.10;;;;;;5053811;28;20029;-79
2021/01/19 00:55:04;;;;;;;5.15;3.67;;;8.70;69.10;;;;;;5059431;28;20037;-79
2021/01/19 00:57:29;;;;;;;4.90;4.18;;;8.70;69.10;;;;;;5053704;28;20052;-79
2021/01/19 00:59:55;;;;;;;5.00;3.78;;;8.80;69.20;;;;;;5064399;28;20029;-79
2021/01/19 01:02:20;;;;;;;3.92;3.42;;;8.80;69.20;;;;;;5057367;28;20477;-80
2021/01/19 01:04:46;;;;;;;4.22;3.47;;;8.70;69.20;;;;;;5062196;28;20083;-79
2021/01/19 01:07:11;;;;;;;3.88;3.50;;;8.70;69.10;;;;;;5059755;28;20041;-80
2021/01/19 01:09:39;;;;;;;4.45;3.78;;;8.70;69.10;;;;;;5061410;28;20125;-79
2021/01/19 01:12:06;;;;;;;4.10;3.50;;;8.70;69.10;;;;;;5070484;28;20040;-79
2021/01/19 01:14:33;;;;;;;5.07;4.15;;;8.80;69.10;;;;;;5059138;28;20149;-80
2021/01/19 01:16:59;;;;;;;5.13;3.50;;;9.00;69.10;;;;;;5066437;28;20085;-79
2021/01/19 01:19:24;;;;;;;6.15;4.22;;;8.70;69.00;;;;;;5062736;28;20031;-80
2021/01/19 01:21:50;;;;;;;4.38;3.97;;;8.70;69.00;;;;;;5054424;28;20037;-81
2021/01/19 01:24:15;;;;;;;4.85;4.18;;;8.70;69.00;;;;;;5061118;28;20029;-80
2021/01/19 01:26:41;;;;;;;5.47;4.22;;;8.70;69.10;;;;;;5061272;28;20025;-80
2021/01/19 01:29:06;;;;;;;4.93;4.43;;;8.70;69.10;;;;;;5064097;28;20094;-78
2021/01/19 01:31:34;;;;;;;5.20;3.92;;;8.70;69.10;;;;;;5060096;28;20029;-79
2021/01/19 01:33:59;;;;;;;5.82;4.55;;;8.70;69.20;;;;;;5057204;28;20498;-79
2021/01/19 01:36:25;;;;;;;6.22;4.57;;;8.70;69.20;;;;;;5057576;28;20032;-79
2021/01/19 01:38:50;;;;;;;5.13;4.13;;;8.70;69.20;;;;;;5049477;28;20040;-80
2021/01/19 01:41:17;;;;;;;5.13;4.63;;;8.80;69.30;;;;;;5061168;28;20029;-79
2021/01/19 01:43:44;;;;;;;5.03;4.53;;;8.70;69.20;;;;;;5056896;28;20059;-80
2021/01/19 01:46:17;;;;;;;5.15;4.65;;;8.70;69.20;;;;;;5055899;28;20037;-79
2021/01/19 01:48:44;;;;;;;5.25;4.75;;;8.70;69.30;;;;;;5037011;28;20036;-80
2021/01/19 01:51:11;;;;;;;6.13;5.15;;;8.70;69.20;;;;;;5064799;28;20033;-78
2021/01/19 01:53:37;;;;;;;6.00;5.15;;;8.70;69.20;;;;;;5053441;28;20116;-79
2021/01/19 01:56:06;;;;;;;6.05;5.45;;;8.80;69.20;;;;;;5051941;28;20108;-79
2021/01/19 01:58:33;;;;;;;7.50;5.97;;;8.70;69.20;;;;;;5061380;28;20029;-79
2021/01/19 02:00:59;;;;;;;5.13;4.63;;;8.80;69.30;;;;;;5059534;28;20051;-80
2021/01/19 02:03:24;;;;;;;4.88;4.43;;;8.70;69.30;;;;;;5062680;28;20093;-79
2021/01/19 02:05:50;;;;;;;5.55;5.05;;;8.80;69.30;;;;;;5061157;28;20028;-80
2021/01/19 02:08:37;;;;;;;6.68;4.75;;;8.90;69.40;;;;;;5047750;28;20044;-80
2021/01/19 02:11:27;;;;;;;5.25;4.65;;;8.70;69.30;;;;;;5051294;28;20033;-80
2021/01/19 02:14:09;;;;;;;6.22;4.80;;;8.80;69.30;;;;;;5057226;28;20040;-80
2021/01/19 02:16:52;;;;;;;4.95;4.45;;;8.80;69.30;;;;;;5038815;28;20454;-79
2021/01/19 02:19:33;;;;;;;5.25;4.28;;;8.80;69.20;;;;;;5024322;28;20045;-80
2021/01/19 02:22:42;;;;;;;6.03;4.38;;;8.80;69.20;;;;;;5038408;28;20025;-81
2021/01/19 02:25:29;;;;;;;5.03;4.22;;;8.80;69.20;;;;;;5039658;28;20243;-79
2021/01/19 02:28:32;;;;;;;5.25;3.97;;;8.80;69.20;;;;;;5047702;28;20037;-80
2021/01/19 02:31:28;;;;;;;6.28;4.60;;;8.80;69.30;;;;;;5038902;28;20053;-78
2021/01/19 02:33:54;;;;;;;5.32;4.70;;;8.80;69.40;;;;;;5049823;28;20036;-80
2021/01/19 02:36:57;;;;;;;5.53;4.95;;;8.80;69.30;;;;;;5045667;28;20037;-80
2021/01/19 02:39:38;;;;;;;5.30;4.35;;;8.80;69.60;;;;;;5048434;28;20037;-80
2021/01/19 02:42:04;;;;;;;;;;;8.80;69.50;;;;;;5039253;28;20025;-81
2021/01/19 02:44:31;;;;;;;5.10;4.15;;;8.80;69.60;;;;;;5040172;28;19909;-80
2021/01/19 02:46:59;;;;;;;5.10;4.47;;;8.90;69.30;;;;;;5032226;28;20482;-81
2021/01/19 02:49:24;;;;;;;5.88;4.35;;;8.90;69.30;;;;;;5034841;28;20033;-80
2021/01/19 02:51:52;;;;;;;5.50;4.82;;;8.90;69.30;;;;;;5025033;28;20481;-80
2021/01/19 02:54:18;;;;;;;5.35;4.35;;;8.90;69.30;;;;;;5038943;28;20029;-80
2021/01/19 02:57:08;;;;;;;4.78;4.30;;;8.90;69.30;;;;;;5032804;28;20032;-80
2021/01/19 03:00:12;;;;;;;4.68;4.28;;;8.90;69.30;;;;;;5037436;28;20029;-80
2021/01/19 03:02:42;;;;;;;5.10;4.60;;;8.90;69.30;;;;;;5050539;28;20036;-80
2021/01/19 03:05:09;;;;;;;5.13;4.40;;;8.90;69.10;;;;;;5063387;28;20429;-80
2021/01/19 03:07:41;;;;;;;5.13;4.68;;;9.00;69.20;;;;;;5048734;28;20041;-78
2021/01/19 03:10:08;;;;;;;5.13;4.38;;;8.90;69.20;;;;;;5038662;28;20033;-81
2021/01/19 03:12:38;;;;;;;9.85;6.18;;;8.90;69.20;;;;;;5044772;28;20036;-81
2021/01/19 03:15:04;;;;;;;5.40;4.75;;;8.90;69.10;;;;;;5031113;28;20271;-80
2021/01/19 03:17:30;;;;;;;5.30;4.00;;;8.90;69.10;;;;;;5037552;28;20455;-81
2021/01/19 03:19:55;;;;;;;6.22;4.88;;;8.90;69.10;;;;;;5036208;28;20052;-82
2021/01/19 03:22:21;;;;;;;6.93;4.78;;;8.90;69.20;;;;;;5032391;28;20045;-81
2021/01/19 03:24:46;;;;;;;4.68;4.18;;;8.90;69.70;;;;;;5031206;28;20564;-81
2021/01/19 03:27:12;;;;;;;5.28;4.38;;;8.90;69.20;;;;;;5032939;28;20041;-81
2021/01/19 03:29:37;;;;;;;5.15;4.22;;;8.80;69.10;;;;;;5036047;28;20543;-80
2021/01/19 03:32:03;;;;;;;5.13;4.38;;;8.90;69.20;;;;;;5023848;28;20098;-81
2021/01/19 03:34:29;;;;;;;4.80;4.30;;;8.90;69.30;;;;;;5033931;28;20057;-81
2021/01/19 03:36:54;;;;;;;4.57;4.18;;;8.80;69.20;;;;;;5047553;28;20029;-81
2021/01/19 03:39:20;;;;;;;5.82;5.13;;;8.90;69.30;;;;;;5035437;28;20041;-81
2021/01/19 03:41:45;;;;;;;6.65;5.00;;;9.00;69.30;;;;;;5030300;28;20067;-81
2021/01/19 03:44:11;;;;;;;4.55;4.13;;;8.90;69.30;;;;;;5031219;28;20064;-81
2021/01/19 03:46:37;;;;;;;5.45;4.65;;;8.90;69.30;;;;;;5050441;28;20037;-81
2021/01/19 03:49:03;;;;;;;5.68;5.07;;;8.90;69.30;;;;;;5039228;28;20057;-80
2021/01/19 03:51:29;;;;;;;5.53;5.03;;;8.90;69.40;;;;;;5031929;28;20034;-81
2021/01/19 03:53:54;;;;;;;7.00;5.25;;;8.90;69.40;;;;;;5035050;28;20109;-79
2021/01/19 03:56:21;;;;;;;4.10;3.70;;;8.90;69.40;;;;;;5037895;28;20048;-80
2021/01/19 03:58:47;;;;;;;4.43;3.88;;;8.90;69.40;;;;;;5035755;28;20037;-81
2021/01/19 04:01:13;;;;;;;4.63;4.13;;;8.80;69.30;;;;;;5035215;28;20038;-80
2021/01/19 04:03:39;;;;;;;6.07;3.95;;;8.90;69.40;;;;;;5035332;28;20029;-81
2021/01/19 04:06:08;;;;;;;4.35;3.90;;;8.90;69.40;;;;;;5025233;28;20022;-80
2021/01/19 04:08:38;;;;;;;3.97;3.58;;;8.90;69.50;;;;;;5024678;28;20095;-80
2021/01/19 04:11:04;;;;;;;4.22;3.75;;;8.90;69.50;;;;;;5024167;28;20044;-81
2021/01/19 04:13:30;;;;;;;5.28;3.63;;;8.90;69.50;;;;;;5037237;23;20045;-79
2021/01/19 04:15:56;;;;;;;4.28;3.88;;;8.90;69.50;;;;;;5016450;28;20514;-78
2021/01/19 04:18:22;;;;;;;4.03;3.63;;;8.90;69.60;;;;;;5014506;28;20099;-79
2021/01/19 04:20:48;;;;;;;4.53;3.33;;;8.90;69.60;;;;;;5013681;28;20037;-79
2021/01/19 04:23:16;;;;;;;3.58;3.25;;;8.90;69.60;;;;;;5015247;28;20414;-78
2021/01/19 04:25:46;;;;;;;3.58;3.15;;;8.90;69.60;;;;;;5027024;28;20026;-79
2021/01/19 04:28:12;;;;;;;3.10;2.80;;;9.10;69.80;;;;;;5029869;28;20029;-79
2021/01/19 04:30:38;;;;;;;3.13;2.67;;;8.90;69.70;;;;;;5021069;28;20403;-77
2021/01/19 04:33:04;;;;;;;3.83;3.08;;;9.00;69.80;;;;;;5028513;28;20033;-78
2021/01/19 04:35:30;;;;;;;3.38;3.08;;;9.00;69.80;;;;;;5011739;28;20501;-79
2021/01/19 04:37:55;;;;;;;2.67;2.47;;;8.90;69.70;;;;;;5012931;28;20120;-79
2021/01/19 04:40:21;;;;;;;3.25;2.58;;;9.00;69.80;;;;;;5045313;28;20036;-79
2021/01/19 04:42:47;;;;;;;3.22;2.60;;;9.00;69.80;;;;;;5037581;28;20029;-78
2021/01/19 04:45:13;;;;;;;3.85;2.58;;;9.00;69.80;;;;;;5026961;28;20103;-78
2021/01/19 04:47:38;;;;;;;3.72;2.75;;;9.00;69.70;;;;;;5017640;28;20034;-78
2021/01/19 04:50:08;;;;;;;3.00;2.22;;;9.00;69.70;;;;;;5029483;28;20461;-79
2021/01/19 04:52:34;;;;;;;2.63;2.05;;;9.00;69.70;;;;;;5031538;28;20112;-78
2021/01/19 04:55:17;;;;;;;2.60;2.40;;;9.00;69.70;;;;;;5028649;28;20025;-78
2021/01/19 04:57:42;;;;;;;3.20;2.30;;;9.00;69.70;;;;;;5030969;28;20030;-78
2021/01/19 05:00:14;;;;;;;3.38;2.47;;;9.00;69.50;;;;;;5027004;28;20029;-78
2021/01/19 05:02:40;;;;;;;2.90;2.30;;;9.00;69.50;;;;;;5044332;28;20036;-79
2021/01/19 05:05:56;;;;;;;3.42;2.63;;;8.90;69.40;;;;;;5034397;28;20037;-78
2021/01/19 05:08:29;;;;;;;2.72;2.10;;;9.00;69.90;;;;;;5001366;28;20037;-79
2021/01/19 05:11:00;;;;;;;3.70;2.38;;;9.00;69.50;;;;;;5032806;28;20021;-80
2021/01/19 05:13:50;;;;;;;1.95;1.83;;;9.00;69.50;;;;;;5023582;28;20099;-80
2021/01/19 05:16:28;;;;;;;1.90;1.77;;;8.90;69.70;;;;;;5027675;28;20149;-78
2021/01/19 05:18:54;;;;;;;3.08;2.20;;;8.90;69.60;;;;;;5025185;28;20033;-78
2021/01/19 05:21:20;;;;;;;2.67;1.90;;;8.90;69.40;;;;;;5032684;28;20032;-79
2021/01/19 05:23:46;;;;;;;2.10;1.90;;;8.90;69.40;;;;;;5046253;28;20037;-78
2021/01/19 05:26:14;;;;;;;2.60;1.85;;;8.90;69.50;;;;;;5038806;28;20036;-78
2021/01/19 05:28:43;;;;;;;1.88;1.67;;;8.90;69.50;;;;;;5024553;28;20112;-79
2021/01/19 05:31:15;;;;;;;8.63;2.88;;;8.80;69.50;;;;;;5031134;28;20115;-79
2021/01/19 05:33:41;;;;;;;2.08;1.55;;;8.80;69.60;;;;;;5047962;28;20102;-79
2021/01/19 05:36:08;;;;;;;2.47;1.70;;;8.80;69.60;;;;;;5030709;28;20036;-80
2021/01/19 05:38:52;;;;;;;2.28;1.55;;;8.90;69.60;;;;;;5035157;28;20060;-81
2021/01/19 05:41:41;;;;;;;1.75;1.50;;;8.90;69.80;;;;;;5024445;28;20034;-80
2021/01/19 05:44:32;;;;;;;1.92;1.30;;;8.80;69.70;;;;;;5035724;28;20025;-81
2021/01/19 05:47:01;;;;;;;1.52;1.27;;;8.80;69.70;;;;;;5015162;28;20056;-80
2021/01/19 05:49:40;;;;;;;2.58;1.48;;;8.80;69.50;;;;;;5032149;28;20018;-80
2021/01/19 05:52:08;;;;;;;2.58;1.30;;;8.80;69.60;;;;;;5031801;28;20036;-80
2021/01/19 05:54:38;;;;;;;1.83;1.52;;;8.70;69.50;;;;;;5023301;28;20428;-80
2021/01/19 05:57:15;;;;;;;2.13;1.02;;;8.80;69.60;;;;;;5023411;28;20033;-79
2021/01/19 05:59:45;;;;;;;2.90;1.40;;;8.80;69.60;;;;;;5035786;28;20032;-80
2021/01/19 06:02:16;;;;;;;1.60;1.30;;;8.80;69.60;;;;;;5030096;28;20041;-80
2021/01/19 06:04:49;;;;;;;2.92;1.60;;;8.70;69.60;;;;;;5028323;28;20104;-78
2021/01/19 06:07:25;;;;;;;1.67;1.33;;;8.80;69.60;;;;;;5028399;28;20049;-79
2021/01/19 06:09:52;;;;;;;2.15;1.27;;;8.70;69.60;;;;;;5033966;28;20033;-80
2021/01/19 06:12:19;;;;;;;2.00;1.23;;;8.70;69.50;;;;;;5040719;28;20049;-79
2021/01/19 06:14:52;;;;;;;2.05;1.35;;;8.70;69.50;;;;;;5041468;28;20044;-79
2021/01/19 06:17:22;;;;;;;2.72;1.73;;;8.70;69.70;;;;;;5033124;28;20402;-80
2021/01/19 06:19:53;;;;;;;2.50;1.40;;;8.70;69.60;;;;;;5027730;28;20025;-79
2021/01/19 06:22:25;;;;;;;;;;;8.70;69.70;;;;;;5022157;28;20446;-80
2021/01/19 06:24:53;;;;;;;3.05;1.25;;;8.70;70.10;;;;;;5024855;28;20059;-80
2021/01/19 06:27:22;;;;;;;2.30;1.48;;;8.70;69.50;;;;;;5034194;28;20044;-79
2021/01/19 06:29:50;;;;;;;1.63;1.30;;;8.70;69.60;;;;;;5040796;28;20115;-79
2021/01/19 06:32:17;;;;;;;1.88;1.45;;;8.70;69.60;;;;;;5020588;28;20140;-79
2021/01/19 06:34:43;;;;;;;2.83;1.55;;;8.70;69.60;;;;;;5039285;28;20029;-78
2021/01/19 06:37:10;;;;;;;2.40;1.50;;;8.70;69.70;;;;;;5032165;28;20037;-79
2021/01/19 06:39:39;;;;;;;1.70;1.27;;;8.70;69.70;;;;;;5025762;28;20091;-79
2021/01/19 06:42:07;;;;;;;1.58;1.33;;;8.70;69.60;;;;;;5035034;28;20036;-79
2021/01/19 06:44:39;;;;;;;1.27;1.02;;;8.70;69.70;;;;;;5030975;28;20026;-80
2021/01/19 06:47:06;;;;;;;2.13;1.45;;;8.70;69.70;;;;;;5032698;28;20102;-79
2021/01/19 06:49:36;;;;;;;1.90;1.20;;;8.70;69.70;;;;;;5038160;28;20075;-79
2021/01/19 06:52:20;;;;;;;1.75;1.08;;;8.70;69.80;;;;;;5025086;28;20133;-85
2021/01/19 06:54:54;;;;;;;1.33;0.98;;;8.60;70.00;;;;;;5034041;28;20059;-84
2021/01/19 06:57:39;;;;;;;2.35;1.13;;;8.70;70.50;;;;;;5020335;28;20045;-84
2021/01/19 07:00:18;;;;;;;2.40;1.23;;;8.70;70.00;;;;;;5042426;28;20040;-84
2021/01/19 07:02:45;;;;;;;1.50;1.02;;;8.70;69.90;;;;;;5032290;28;20032;-82
2021/01/19 07:05:16;;;;;;;1.58;1.00;;;8.70;69.90;;;;;;5033377;28;20057;-79
2021/01/19 07:07:46;;;;;;;1.30;1.20;;;8.70;69.90;;;;;;5034232;28;20068;-85
2021/01/19 07:10:34;;;;;;;1.25;1.02;;;8.70;69.90;;;;;;5027347;28;20060;-84
2021/01/19 07:13:01;;;;;;;1.27;0.95;;;8.70;69.80;;;;;;5025966;28;20116;-84
2021/01/19 07:15:50;;;;;;;0.90;0.75;;;8.70;69.70;;;;;;5021330;28;20037;-83
2021/01/19 07:18:36;;;;;;;1.05;0.93;;;8.70;69.80;;;;;;5026994;28;20037;-84
2021/01/19 07:21:06;;;;;;;0.75;0.60;;;8.70;69.70;;;;;;5022801;28;20571;-84
2021/01/19 07:23:46;;;;;;;1.30;0.90;;;8.70;69.60;;;;;;5023926;28;20574;-83
2021/01/19 07:26:20;;;;;;;1.50;0.70;;;8.70;69.90;;;;;;5027887;28;20064;-85
2021/01/19 07:28:47;;;;;;;0.63;0.63;;;8.60;69.70;;;;;;5024462;28;20639;-85
2021/01/19 07:31:20;;;;;;;1.50;0.68;;;8.70;69.70;;;;;;5028602;28;20033;-85
2021/01/19 07:33:49;;;;;;;0.80;0.73;;;8.70;69.80;;;;;;5033281;28;20037;-85
2021/01/19 07:36:16;;;;;;;0.80;0.50;;;8.60;69.80;;;;;;5020585;28;20087;-85
2021/01/19 07:38:42;;;;;;;1.08;0.70;;;8.70;69.80;;;;;;5029879;28;20033;-85
2021/01/19 07:41:08;;;;;;;2.55;1.05;;;8.60;69.80;;;;;;5025285;28;20099;-86
2021/01/19 07:43:35;;;;;;;1.77;0.90;;;8.60;69.90;;;;;;5023426;28;20037;-85
2021/01/19 07:46:01;;;;;;;1.00;0.70;;;8.60;69.90;;;;;;5021802;28;20029;-86
2021/01/19 07:48:35;;;;;;;1.10;0.90;;;8.60;70.00;;;;;;5035436;28;20112;-85
2021/01/19 07:51:14;;;;;;;0.93;0.80;;;8.60;70.10;;;;;;5032904;28;20106;-83
2021/01/19 07:53:50;;;;;;;1.25;0.80;;;8.60;70.30;;;;;;5015748;28;20046;-86
2021/01/19 07:56:26;;;;;;;1.05;0.80;;;8.70;70.20;;;;;;5028909;28;20060;-85
